createdAt,value
2023-07-19T00:00:56.981Z,75.60
2023-07-19T00:03:23.884Z,74.30
2023-07-19T00:05:50.856Z,74.10
2023-07-19T00:08:18.003Z,75.10
2023-07-19T00:10:44.945Z,76.00
2023-07-19T00:13:12.366Z,76.30
2023-07-19T00:15:39.408Z,77.00
2023-07-19T00:18:06.388Z,76.90
2023-07-19T00:20:33.437Z,76.90
2023-07-19T00:23:00.459Z,77.80
2023-07-19T00:25:27.431Z,77.40
2023-07-19T00:27:54.774Z,77.30
2023-07-19T00:30:21.980Z,76.90
2023-07-19T00:32:49.114Z,76.70
2023-07-19T00:35:16.747Z,76.90
2023-07-19T00:37:44.446Z,77.40
2023-07-19T00:40:11.880Z,77.80
2023-07-19T00:42:38.873Z,77.80
2023-07-19T00:45:06.282Z,77.30
2023-07-19T00:47:34.746Z,79.20
2023-07-19T00:50:01.785Z,79.80
2023-07-19T00:52:29.213Z,80.50
2023-07-19T00:54:56.481Z,80.40
2023-07-19T00:57:23.465Z,80.60
2023-07-19T00:59:50.631Z,80.70
2023-07-19T01:02:17.619Z,81.80
2023-07-19T01:04:45.709Z,82.70
2023-07-19T01:07:13.047Z,82.20
2023-07-19T01:09:40.089Z,84.40
2023-07-19T01:12:07.688Z,85.00
2023-07-19T01:14:36.031Z,85.30
2023-07-19T01:17:02.913Z,85.70
2023-07-19T01:19:31.162Z,86.80
2023-07-19T01:21:59.138Z,86.10
2023-07-19T01:24:26.153Z,85.20
2023-07-19T01:26:53.350Z,88.90
2023-07-19T01:29:20.299Z,89.30
2023-07-19T01:31:48.283Z,90.00
2023-07-19T01:34:16.094Z,90.60
2023-07-19T01:36:43.175Z,91.10
2023-07-19T01:39:10.088Z,91.90
2023-07-19T01:41:37.000Z,93.50
2023-07-19T01:44:04.101Z,94.20
2023-07-19T01:46:31.044Z,94.20
2023-07-19T01:48:57.920Z,94.00
2023-07-19T01:51:25.005Z,94.60
2023-07-19T01:53:53.699Z,94.20
2023-07-19T01:56:20.652Z,94.50
2023-07-19T01:58:47.657Z,94.70
2023-07-19T02:01:17.149Z,95.30
2023-07-19T02:03:44.504Z,95.40
2023-07-19T02:06:13.218Z,95.30
2023-07-19T02:08:40.900Z,96.00
2023-07-19T02:11:08.863Z,96.30
2023-07-19T02:13:35.897Z,96.40
2023-07-19T02:16:02.865Z,96.80
2023-07-19T02:18:29.889Z,97.50
2023-07-19T02:20:57.361Z,97.80
2023-07-19T02:23:24.699Z,98.10
2023-07-19T02:25:51.808Z,98.40
2023-07-19T02:28:19.126Z,98.40
2023-07-19T02:30:47.046Z,98.70
2023-07-19T02:33:16.192Z,98.80
2023-07-19T02:35:43.796Z,98.50
2023-07-19T02:38:10.905Z,98.50
2023-07-19T02:40:38.709Z,98.40
2023-07-19T02:43:05.852Z,98.30
2023-07-19T02:45:35.733Z,97.80
2023-07-19T02:48:03.372Z,97.60
2023-07-19T02:50:30.717Z,98.00
2023-07-19T02:52:58.354Z,97.50
2023-07-19T02:55:25.529Z,97.80
2023-07-19T02:57:52.548Z,97.90
2023-07-19T03:00:19.574Z,97.90
2023-07-19T03:02:48.309Z,98.00
2023-07-19T03:05:17.268Z,98.10
2023-07-19T03:07:44.857Z,98.40
2023-07-19T03:10:12.207Z,98.60
2023-07-19T03:12:39.302Z,98.90
2023-07-19T03:15:07.075Z,98.60
2023-07-19T03:17:34.408Z,98.70
2023-07-19T03:20:01.366Z,98.70
2023-07-19T03:22:28.278Z,98.70
2023-07-19T03:24:55.377Z,98.60
2023-07-19T03:27:22.669Z,98.70
2023-07-19T03:29:49.641Z,98.90
2023-07-19T03:32:16.959Z,98.90
2023-07-19T03:34:43.875Z,98.90
2023-07-19T03:37:10.826Z,98.70
2023-07-19T03:39:37.980Z,98.60
2023-07-19T03:42:05.620Z,98.70
2023-07-19T03:44:32.597Z,98.70
2023-07-19T03:46:59.641Z,98.80
2023-07-19T03:49:26.774Z,99.00
2023-07-19T03:51:53.816Z,99.10
2023-07-19T03:54:21.022Z,99.20
2023-07-19T03:56:48.019Z,99.60
2023-07-19T03:59:15.073Z,99.50
2023-07-19T04:01:42.042Z,99.40
2023-07-19T04:04:09.143Z,99.50
2023-07-19T04:06:37.670Z,98.70
2023-07-19T04:09:04.693Z,98.20
2023-07-19T04:11:31.637Z,96.60
2023-07-19T04:13:58.725Z,96.10
2023-07-19T04:16:25.804Z,95.70
2023-07-19T04:18:52.860Z,95.40
2023-07-19T04:21:20.803Z,95.60
2023-07-19T04:23:49.205Z,95.20
2023-07-19T04:26:17.776Z,94.80
2023-07-19T04:28:45.347Z,94.90
2023-07-19T04:31:12.364Z,95.00
2023-07-19T04:33:39.443Z,95.10
2023-07-19T04:36:17.054Z,95.00
2023-07-19T04:38:46.813Z,94.20
2023-07-19T04:41:13.745Z,94.40
2023-07-19T04:43:40.714Z,94.60
2023-07-19T04:46:08.170Z,94.70
2023-07-19T04:48:35.851Z,94.70
2023-07-19T04:51:03.488Z,94.90
2023-07-19T04:53:30.597Z,94.90
2023-07-19T04:55:58.897Z,94.80
2023-07-19T04:58:30.485Z,94.50
2023-07-19T05:00:57.593Z,93.50
2023-07-19T05:03:24.522Z,93.40
2023-07-19T05:05:51.467Z,93.30
2023-07-19T05:08:19.800Z,93.30
2023-07-19T05:10:46.743Z,93.30
2023-07-19T05:13:14.036Z,93.20
2023-07-19T05:15:41.152Z,93.10
2023-07-19T05:18:12.784Z,93.60
2023-07-19T05:20:41.192Z,92.80
2023-07-19T05:23:08.300Z,92.40
2023-07-19T05:25:35.932Z,92.60
2023-07-19T05:28:02.972Z,92.90
2023-07-19T05:30:30.063Z,92.50
2023-07-19T05:32:56.968Z,92.30
2023-07-19T05:35:24.112Z,92.20
2023-07-19T05:37:51.121Z,92.50
2023-07-19T05:40:18.474Z,92.50
2023-07-19T05:42:46.564Z,92.60
2023-07-19T05:45:13.385Z,92.40
2023-07-19T05:47:40.454Z,92.50
2023-07-19T05:50:08.330Z,92.80
2023-07-19T05:52:35.303Z,92.80
2023-07-19T05:55:04.666Z,92.50
2023-07-19T05:57:33.493Z,92.40
2023-07-19T06:00:19.426Z,92.60
2023-07-19T06:02:54.338Z,92.90
2023-07-19T06:05:25.533Z,92.70
2023-07-19T06:07:53.493Z,92.60
2023-07-19T06:10:20.505Z,92.90
2023-07-19T06:12:48.505Z,92.50
2023-07-19T06:15:15.637Z,92.50
2023-07-19T06:17:44.024Z,92.20
2023-07-19T06:20:11.817Z,91.70
2023-07-19T06:22:39.061Z,90.70
2023-07-19T06:25:07.201Z,90.50
2023-07-19T06:27:34.287Z,90.40
2023-07-19T06:30:01.702Z,88.70
2023-07-19T06:32:28.950Z,88.70
2023-07-19T06:34:55.932Z,86.60
2023-07-19T06:37:23.439Z,83.20
2023-07-19T06:39:50.434Z,82.60
2023-07-19T06:42:17.399Z,78.40
2023-07-19T06:44:44.372Z,77.60
2023-07-19T06:47:11.483Z,77.00
2023-07-19T06:49:38.552Z,76.90
2023-07-19T06:52:06.596Z,78.80
2023-07-19T06:54:33.587Z,79.40
2023-07-19T06:57:00.775Z,79.00
2023-07-19T06:59:30.822Z,77.20
2023-07-19T07:01:57.987Z,77.40
2023-07-19T07:04:25.673Z,76.60
2023-07-19T07:06:52.584Z,75.10
2023-07-19T07:09:19.733Z,74.50
2023-07-19T07:11:46.612Z,74.60
2023-07-19T07:14:13.536Z,75.40
2023-07-19T07:16:40.854Z,75.20
2023-07-19T07:19:07.761Z,75.50
2023-07-19T07:21:34.781Z,76.30
2023-07-19T07:24:01.760Z,76.10
2023-07-19T07:26:28.720Z,75.10
2023-07-19T07:28:55.775Z,74.40
2023-07-19T07:31:23.160Z,73.00
2023-07-19T07:33:50.504Z,72.60
2023-07-19T07:36:17.487Z,72.20
2023-07-19T07:38:44.435Z,68.10
2023-07-19T07:41:12.647Z,67.60
2023-07-19T07:43:39.911Z,68.70
2023-07-19T07:46:07.021Z,67.60
2023-07-19T07:48:33.988Z,66.10
2023-07-19T07:51:01.105Z,65.00
2023-07-19T07:53:28.513Z,64.10
2023-07-19T07:55:55.545Z,61.50
2023-07-19T07:58:22.922Z,61.40
2023-07-19T08:00:50.429Z,62.80
2023-07-19T08:03:17.771Z,63.50
2023-07-19T08:05:44.763Z,63.00
2023-07-19T08:08:12.506Z,62.00
2023-07-19T08:10:40.790Z,60.00
2023-07-19T08:13:12.647Z,57.80
2023-07-19T08:15:39.703Z,58.40
2023-07-19T08:18:06.653Z,59.50
2023-07-19T08:20:33.686Z,59.40
2023-07-19T08:23:03.258Z,56.80
2023-07-19T08:25:30.713Z,58.10
2023-07-19T08:27:57.608Z,58.70
2023-07-19T08:30:25.308Z,59.00
2023-07-19T08:32:52.755Z,57.40
2023-07-19T08:35:19.851Z,58.60
2023-07-19T08:37:47.419Z,57.80
2023-07-19T08:40:15.861Z,56.80
2023-07-19T08:42:43.984Z,56.10
2023-07-19T08:45:11.758Z,58.60
2023-07-19T08:47:39.347Z,58.80
2023-07-19T08:50:07.107Z,59.20
2023-07-19T08:52:34.325Z,59.30
2023-07-19T08:55:02.019Z,58.10
2023-07-19T08:57:30.045Z,59.10
2023-07-19T08:59:56.932Z,59.70
2023-07-19T09:02:23.931Z,59.00
2023-07-19T09:05:17.457Z,60.10
2023-07-19T09:07:49.069Z,59.80
2023-07-19T09:10:18.249Z,59.60
2023-07-19T09:12:47.194Z,57.90
2023-07-19T09:15:14.829Z,58.90
2023-07-19T09:17:47.311Z,58.60
2023-07-19T09:20:16.109Z,59.00
2023-07-19T09:22:43.779Z,59.60
2023-07-19T09:25:12.596Z,58.80
2023-07-19T09:27:44.327Z,58.50
2023-07-19T09:30:15.791Z,58.60
2023-07-19T09:32:43.379Z,58.80
2023-07-19T09:35:11.027Z,59.80
2023-07-19T09:37:38.068Z,59.20
2023-07-19T09:40:06.224Z,58.50
2023-07-19T09:42:35.526Z,57.90
2023-07-19T09:45:05.285Z,58.10
2023-07-19T09:47:35.093Z,58.80
2023-07-19T09:50:02.298Z,58.50
2023-07-19T09:52:30.690Z,57.60
2023-07-19T09:54:58.125Z,57.70
2023-07-19T09:57:27.828Z,56.80
2023-07-19T09:59:55.173Z,54.80
2023-07-19T10:02:25.468Z,54.80
2023-07-19T10:04:52.633Z,54.30
2023-07-19T10:07:22.377Z,54.10
2023-07-19T10:09:52.961Z,54.00
2023-07-19T10:12:19.848Z,55.10
2023-07-19T10:14:57.519Z,54.00
2023-07-19T10:17:25.900Z,54.70
2023-07-19T10:20:05.947Z,55.30
2023-07-19T10:23:06.393Z,54.60
2023-07-19T10:25:38.496Z,54.50
2023-07-19T10:28:11.060Z,54.60
2023-07-19T10:30:56.575Z,55.70
2023-07-19T10:33:34.912Z,56.20
2023-07-19T10:36:09.839Z,57.20
2023-07-19T10:38:40.358Z,57.30
2023-07-19T10:41:09.865Z,57.00
2023-07-19T10:46:08.976Z,57.90
2023-07-19T10:48:40.757Z,57.70
2023-07-19T10:51:12.032Z,58.10
2023-07-19T10:53:46.555Z,57.70
2023-07-19T10:56:15.476Z,57.40
2023-07-19T10:58:46.109Z,58.30
2023-07-19T11:01:13.930Z,58.60
2023-07-19T11:03:43.955Z,57.60
2023-07-19T11:06:11.427Z,58.20
2023-07-19T11:08:38.773Z,58.00
2023-07-19T11:11:08.702Z,57.90
2023-07-19T11:13:35.973Z,57.70
2023-07-19T11:16:03.037Z,57.00
2023-07-19T11:18:30.961Z,56.80
2023-07-19T11:20:59.486Z,55.30
2023-07-19T11:23:30.312Z,56.10
2023-07-19T11:26:04.881Z,56.20
2023-07-19T11:28:50.635Z,54.80
2023-07-19T11:31:39.698Z,54.80
2023-07-19T11:34:09.352Z,54.10
2023-07-19T11:36:46.534Z,54.10
2023-07-19T11:39:22.039Z,54.40
2023-07-19T11:41:50.092Z,53.50
2023-07-19T11:44:17.997Z,53.80
2023-07-19T11:46:45.370Z,53.70
2023-07-19T11:49:12.460Z,54.00
2023-07-19T11:51:40.087Z,54.10
2023-07-19T11:54:07.350Z,54.60
2023-07-19T11:56:35.515Z,54.90
2023-07-19T11:59:02.917Z,54.30
2023-07-19T12:01:30.304Z,55.10
2023-07-19T12:04:02.624Z,55.60
2023-07-19T12:06:30.586Z,55.60
2023-07-19T12:08:57.972Z,55.70
2023-07-19T12:11:25.301Z,56.40
2023-07-19T12:13:52.551Z,57.00
2023-07-19T12:16:19.635Z,56.60
2023-07-19T12:18:46.672Z,56.20
2023-07-19T12:21:14.426Z,55.30
2023-07-19T12:23:42.389Z,55.50
2023-07-19T12:26:10.595Z,55.10
2023-07-19T12:28:38.175Z,55.70
2023-07-19T12:31:05.177Z,54.10
2023-07-19T12:33:32.130Z,53.70
2023-07-19T12:35:59.118Z,54.80
2023-07-19T12:38:26.012Z,54.80
2023-07-19T12:40:52.886Z,56.20
2023-07-19T12:43:20.547Z,55.50
2023-07-19T12:45:47.674Z,55.40
2023-07-19T12:48:14.634Z,55.70
2023-07-19T12:50:41.663Z,54.80
2023-07-19T12:53:08.666Z,55.20
2023-07-19T12:55:35.583Z,55.70
2023-07-19T12:58:02.633Z,53.80
2023-07-19T13:00:29.734Z,53.00
2023-07-19T13:02:56.885Z,53.80
2023-07-19T13:05:24.138Z,54.40
2023-07-19T13:07:51.986Z,55.60
2023-07-19T13:10:18.923Z,56.00
2023-07-19T13:12:45.950Z,56.20
2023-07-19T13:15:12.918Z,56.80
2023-07-19T13:17:42.539Z,56.50
2023-07-19T13:20:10.874Z,56.20
2023-07-19T13:22:38.440Z,57.30
2023-07-19T13:25:06.743Z,57.00
2023-07-19T13:27:34.833Z,55.90
2023-07-19T13:30:02.104Z,56.20
2023-07-19T13:32:29.187Z,56.70
2023-07-19T13:34:57.620Z,56.90
2023-07-19T13:40:12.190Z,57.00
2023-07-19T13:42:39.666Z,57.50
2023-07-19T13:45:07.399Z,57.10
2023-07-19T13:47:34.657Z,57.10
2023-07-19T13:50:01.675Z,56.90
2023-07-19T13:52:28.651Z,56.70
2023-07-19T13:54:55.602Z,57.10
2023-07-19T13:57:24.607Z,56.60
2023-07-19T13:59:51.621Z,56.90
2023-07-19T14:02:18.651Z,57.20
2023-07-19T14:04:45.642Z,56.70
2023-07-19T14:07:15.186Z,57.70
2023-07-19T14:09:42.998Z,57.00
2023-07-19T14:12:14.761Z,57.40
2023-07-19T14:14:45.680Z,56.70
2023-07-19T14:17:12.922Z,56.00
2023-07-19T14:19:40.055Z,56.20
2023-07-19T14:22:07.677Z,56.20
2023-07-19T14:24:34.902Z,55.40
2023-07-19T14:27:02.095Z,56.00
2023-07-19T14:29:29.669Z,55.00
2023-07-19T14:31:56.948Z,53.90
2023-07-19T14:34:26.733Z,52.60
2023-07-19T14:36:54.107Z,51.00
2023-07-19T14:39:21.764Z,51.30
2023-07-19T14:41:57.003Z,50.90
2023-07-19T14:44:26.097Z,50.50
2023-07-19T14:46:53.089Z,50.30
2023-07-19T14:49:20.248Z,49.80
2023-07-19T14:51:47.238Z,50.50
2023-07-19T14:54:14.552Z,51.10
2023-07-19T14:56:41.433Z,51.70
2023-07-19T14:59:08.341Z,51.20
2023-07-19T15:01:35.858Z,50.80
2023-07-19T15:04:02.906Z,51.80
2023-07-19T15:08:58.455Z,51.50
2023-07-19T15:11:25.609Z,51.10
2023-07-19T15:13:53.031Z,51.80
2023-07-19T15:16:20.535Z,51.20
2023-07-19T15:18:48.609Z,51.50
2023-07-19T15:21:15.806Z,51.60
2023-07-19T15:23:49.829Z,51.70
2023-07-19T15:28:48.141Z,52.10
2023-07-19T15:31:15.589Z,52.30
2023-07-19T15:33:42.576Z,52.50
2023-07-19T15:36:09.501Z,53.20
2023-07-19T15:38:43.364Z,52.80
2023-07-19T15:41:11.149Z,52.30
2023-07-19T15:43:38.237Z,52.50
2023-07-19T15:46:05.243Z,52.60
2023-07-19T15:48:32.210Z,52.60
2023-07-19T15:51:00.566Z,53.00
2023-07-19T15:53:29.446Z,53.40
2023-07-19T15:55:58.179Z,52.60
2023-07-19T15:58:25.327Z,52.60
2023-07-19T16:00:52.233Z,52.60
2023-07-19T16:03:19.585Z,52.90
2023-07-19T16:05:46.832Z,52.50
2023-07-19T16:08:14.147Z,53.30
2023-07-19T16:10:41.101Z,52.90
2023-07-19T16:13:08.097Z,52.10
2023-07-19T16:15:35.122Z,52.20
2023-07-19T16:18:02.099Z,52.00
2023-07-19T16:20:29.078Z,51.60
2023-07-19T16:22:56.096Z,52.50
2023-07-19T16:25:23.117Z,52.60
2023-07-19T16:27:50.166Z,52.70
2023-07-19T16:30:17.311Z,53.00
2023-07-19T16:32:44.328Z,53.20
2023-07-19T16:35:11.387Z,53.50
2023-07-19T16:37:38.471Z,53.50
2023-07-19T16:40:05.885Z,53.60
2023-07-19T16:42:32.888Z,53.80
2023-07-19T16:44:59.799Z,54.60
2023-07-19T16:47:27.678Z,54.10
2023-07-19T16:49:54.802Z,53.40
2023-07-19T16:52:21.750Z,54.10
2023-07-19T16:54:48.744Z,54.00
2023-07-19T16:57:15.716Z,53.90
2023-07-19T16:59:42.686Z,54.20
2023-07-19T17:02:11.551Z,54.00
2023-07-19T17:04:39.018Z,53.90
2023-07-19T17:07:06.051Z,54.50
2023-07-19T17:09:33.052Z,54.60
2023-07-19T17:12:00.939Z,54.50
2023-07-19T17:14:27.932Z,54.40
2023-07-19T17:17:06.630Z,54.30
2023-07-19T17:19:40.031Z,54.20
2023-07-19T17:22:07.171Z,55.10
2023-07-19T17:24:34.192Z,55.30
2023-07-19T17:27:02.603Z,54.30
2023-07-19T17:29:29.537Z,54.60
2023-07-19T17:31:57.191Z,55.00
2023-07-19T17:34:24.260Z,54.50
2023-07-19T17:36:51.343Z,54.60
2023-07-19T17:39:18.306Z,54.80
2023-07-19T17:41:45.287Z,55.30
2023-07-19T17:44:12.565Z,55.50
2023-07-19T17:46:40.468Z,55.40
2023-07-19T17:49:07.832Z,55.80
2023-07-19T17:51:34.837Z,56.00
2023-07-19T17:54:01.950Z,56.10
2023-07-19T17:56:29.009Z,56.20
2023-07-19T17:58:56.096Z,56.50
2023-07-19T18:01:23.282Z,56.80
2023-07-19T18:03:51.323Z,57.00
2023-07-19T18:06:19.245Z,56.90
2023-07-19T18:08:46.132Z,56.90
2023-07-19T18:11:13.099Z,57.00
2023-07-19T18:13:40.139Z,57.30
2023-07-19T18:16:06.991Z,57.70
2023-07-19T18:18:33.886Z,57.20
2023-07-19T18:21:00.968Z,57.20
2023-07-19T18:23:27.864Z,57.70
2023-07-19T18:25:54.774Z,57.90
2023-07-19T18:28:21.777Z,57.60
2023-07-19T18:30:48.842Z,57.80
2023-07-19T18:33:15.759Z,57.80
2023-07-19T18:35:43.504Z,58.50
2023-07-19T18:38:10.581Z,58.50
2023-07-19T18:40:39.200Z,58.50
2023-07-19T18:43:06.260Z,58.50
2023-07-19T18:45:34.675Z,58.50
2023-07-19T18:48:01.695Z,58.40
2023-07-19T18:50:28.884Z,59.00
2023-07-19T18:52:55.933Z,59.40
2023-07-19T18:55:23.040Z,59.20
2023-07-19T18:57:50.082Z,59.30
2023-07-19T19:00:17.233Z,59.70
2023-07-19T19:02:44.255Z,59.60
2023-07-19T19:05:11.346Z,59.70
2023-07-19T19:07:38.265Z,59.90
2023-07-19T19:10:05.609Z,60.80
2023-07-19T19:12:32.513Z,60.30
2023-07-19T19:15:00.340Z,60.70
2023-07-19T19:17:27.249Z,60.20
2023-07-19T19:19:54.261Z,60.00
2023-07-19T19:22:21.183Z,60.60
2023-07-19T19:24:48.229Z,60.30
2023-07-19T19:27:15.246Z,60.30
2023-07-19T19:29:43.095Z,60.40
2023-07-19T19:32:10.143Z,60.60
2023-07-19T19:34:37.552Z,61.00
2023-07-19T19:37:04.715Z,61.30
2023-07-19T19:39:31.683Z,61.30
2023-07-19T19:41:59.156Z,62.10
2023-07-19T19:44:26.127Z,61.60
2023-07-19T19:46:53.396Z,61.80
2023-07-19T19:49:20.415Z,61.60
2023-07-19T19:51:49.725Z,62.10
2023-07-19T19:54:16.657Z,61.90
2023-07-19T19:56:50.486Z,62.40
2023-07-19T19:59:18.142Z,62.60
2023-07-19T20:01:47.116Z,62.90
2023-07-19T20:04:14.277Z,63.10
2023-07-19T20:06:41.301Z,63.10
2023-07-19T20:09:12.851Z,63.30
2023-07-19T20:11:40.424Z,63.50
2023-07-19T20:14:16.513Z,64.10
2023-07-19T20:16:43.994Z,63.90
2023-07-19T20:21:42.901Z,64.30
2023-07-19T20:24:13.346Z,64.20
2023-07-19T20:26:43.552Z,64.60
2023-07-19T20:41:41.535Z,65.20
2023-07-19T20:44:08.557Z,65.30
2023-07-19T20:49:06.888Z,65.70
2023-07-19T20:51:34.144Z,65.50
2023-07-19T20:54:01.376Z,65.40
2023-07-19T20:56:28.238Z,65.40
2023-07-19T20:58:55.124Z,65.60
2023-07-19T21:01:22.440Z,65.70
2023-07-19T21:03:49.782Z,65.60
2023-07-19T21:06:17.138Z,66.10
2023-07-19T21:08:44.095Z,66.00
2023-07-19T21:11:11.196Z,65.80
2023-07-19T21:13:38.801Z,65.50
2023-07-19T21:16:05.984Z,65.90
2023-07-19T21:18:32.874Z,65.00
2023-07-19T21:21:01.509Z,65.40
2023-07-19T21:23:28.800Z,65.40
2023-07-19T21:25:55.746Z,65.60
2023-07-19T21:28:22.895Z,65.60
2023-07-19T21:30:49.972Z,65.50
2023-07-19T21:33:16.999Z,65.10
2023-07-19T21:35:44.021Z,65.10
2023-07-19T21:38:11.003Z,65.80
2023-07-19T21:40:38.012Z,67.50
2023-07-19T21:43:05.029Z,68.10
2023-07-19T21:45:32.105Z,68.80
2023-07-19T21:47:59.357Z,69.30
2023-07-19T21:50:26.370Z,69.90
2023-07-19T21:52:53.321Z,70.20
2023-07-19T21:55:20.350Z,70.60
2023-07-19T21:57:47.340Z,70.70
2023-07-19T22:00:14.891Z,70.50
2023-07-19T22:02:41.854Z,72.40
2023-07-19T22:05:08.975Z,72.20
2023-07-19T22:07:35.874Z,72.40
2023-07-19T22:10:02.916Z,72.90
2023-07-19T22:12:29.925Z,72.70
2023-07-19T22:15:06.843Z,73.30
2023-07-19T22:17:36.748Z,73.90
2023-07-19T22:20:05.141Z,74.60
2023-07-19T22:22:32.190Z,74.50
2023-07-19T22:24:59.235Z,74.80
2023-07-19T22:27:26.269Z,74.40
2023-07-19T22:29:53.258Z,74.90
2023-07-19T22:32:20.229Z,73.80
2023-07-19T22:34:47.182Z,74.90
2023-07-19T22:37:14.228Z,74.20
2023-07-19T22:39:41.863Z,73.70
2023-07-19T22:42:09.098Z,73.80
2023-07-19T22:44:36.091Z,75.10
2023-07-19T22:47:04.897Z,75.80
2023-07-19T22:49:32.058Z,75.40
2023-07-19T22:51:58.980Z,76.00
2023-07-19T22:54:26.040Z,76.40
2023-07-19T22:56:52.971Z,77.00
2023-07-19T22:59:20.045Z,76.60
2023-07-19T23:01:47.132Z,77.40
2023-07-19T23:04:14.527Z,76.50
2023-07-19T23:06:41.526Z,77.80
2023-07-19T23:09:08.429Z,77.30
2023-07-19T23:11:39.027Z,79.10
2023-07-19T23:14:09.535Z,79.70
2023-07-19T23:16:36.717Z,79.60
2023-07-19T23:19:03.710Z,79.70
2023-07-19T23:21:30.585Z,80.40
2023-07-19T23:23:57.563Z,80.20
2023-07-19T23:26:25.951Z,81.30
2023-07-19T23:28:53.054Z,81.80
2023-07-19T23:31:20.209Z,82.40
2023-07-19T23:33:47.378Z,82.90
2023-07-19T23:36:14.378Z,82.30
2023-07-19T23:38:42.562Z,83.90
2023-07-19T23:41:09.559Z,83.20
2023-07-19T23:43:36.525Z,84.60
2023-07-19T23:46:03.751Z,84.50
2023-07-19T23:48:30.745Z,85.50
2023-07-19T23:50:57.650Z,84.70
2023-07-19T23:53:24.565Z,86.90
2023-07-19T23:55:51.500Z,87.60
2023-07-19T23:58:20.472Z,87.50
